< < Back
Terminal Aerodrome Forecast


Current Version              Previous Versions:   1  2  3  4  5  6  7  8  9  

Terminal Aerodrome Forecast

446
FTUS44 KBMX 230500
TAFTCL
TAF
KTCL 230520Z 2306/2406 35003KT P6SM SKC=

Latest METAR

696
SAUS70 KWBC 232000 RRK
MTRTCL
METAR KTCL 231953Z 01006KT 10SM CLR 21/06 A3007 RMK AO2 SLP181
T02060061


USA.gov is the U.S. government's official web portal to all federal, state and local government web resources and services.